createdAt,value
2022-10-12T00:01:33.643Z,98988.13
2022-10-12T00:04:03.382Z,98985.03
2022-10-12T00:06:33.260Z,98993.94
2022-10-12T00:09:06.345Z,98994.38
2022-10-12T00:11:36.028Z,98999.84
2022-10-12T00:14:05.742Z,98992.88
2022-10-12T00:16:35.565Z,98995.94
2022-10-12T00:19:05.404Z,98989.19
2022-10-12T00:21:35.039Z,98994.72
2022-10-12T00:24:08.235Z,98997.06
2022-10-12T00:26:37.900Z,98993.44
2022-10-12T00:29:07.634Z,98984.13
2022-10-12T00:31:37.262Z,98985.28
2022-10-12T00:34:07.130Z,98986.31
2022-10-12T00:36:37.753Z,98991.53
2022-10-12T00:39:11.452Z,98985.81
2022-10-12T00:41:43.139Z,98989.63
2022-10-12T00:44:38.162Z,98989.91
2022-10-12T00:47:15.474Z,98988.94
2022-10-12T00:49:46.080Z,98980.00
2022-10-12T00:52:18.727Z,98977.94
2022-10-12T00:54:53.452Z,98981.28
2022-10-12T00:57:25.291Z,98982.03
2022-10-12T00:59:59.613Z,98984.94
2022-10-12T01:02:32.719Z,98984.47
2022-10-12T01:05:03.104Z,98979.41
2022-10-12T01:07:33.113Z,98983.28
2022-10-12T01:10:05.590Z,98972.59
2022-10-12T01:12:37.263Z,98978.09
2022-10-12T01:15:08.313Z,98981.53
2022-10-12T01:17:47.969Z,98973.50
2022-10-12T01:20:39.680Z,98975.53
2022-10-12T01:23:31.181Z,98976.22
2022-10-12T01:26:26.109Z,98973.66
2022-10-12T01:29:08.689Z,98979.91
2022-10-12T01:31:47.602Z,98976.53
2022-10-12T01:34:24.990Z,98971.03
2022-10-12T01:37:01.374Z,98972.56
2022-10-12T01:39:37.253Z,98966.16
2022-10-12T01:42:12.312Z,98966.81
2022-10-12T01:44:42.958Z,98967.97
2022-10-12T01:47:15.369Z,98968.28
2022-10-12T01:49:45.258Z,98973.56
2022-10-12T01:52:27.607Z,98977.03
2022-10-12T01:55:10.844Z,98973.00
2022-10-12T01:57:52.359Z,98973.47
2022-10-12T02:00:22.496Z,98968.22
2022-10-12T02:03:04.826Z,98964.38
2022-10-12T02:05:39.933Z,98963.72
2022-10-12T02:08:18.757Z,98964.47
2022-10-12T02:10:55.214Z,98961.25
2022-10-12T02:13:27.188Z,98961.34
2022-10-12T02:15:58.117Z,98953.47
2022-10-12T02:18:32.201Z,98954.34
2022-10-12T02:21:02.765Z,98951.91
2022-10-12T02:23:33.014Z,98953.25
2022-10-12T02:26:04.537Z,98958.34
2022-10-12T02:28:38.091Z,98947.81
2022-10-12T02:31:17.353Z,98959.94
2022-10-12T02:33:55.028Z,98958.09
2022-10-12T02:36:30.402Z,98959.56
2022-10-12T02:39:07.017Z,98949.88
2022-10-12T02:41:41.611Z,98949.75
2022-10-12T02:44:14.882Z,98951.72
2022-10-12T02:46:46.497Z,98956.16
2022-10-12T02:49:20.945Z,98961.81
2022-10-12T02:51:51.357Z,98960.00
2022-10-12T02:54:21.072Z,98953.59
2022-10-12T02:56:50.839Z,98953.00
2022-10-12T02:59:21.827Z,98954.34
2022-10-12T03:01:51.549Z,98942.41
2022-10-12T03:04:23.921Z,98947.50
2022-10-12T03:06:53.603Z,98955.50
2022-10-12T03:09:23.462Z,98942.75
2022-10-12T03:11:53.174Z,98950.13
2022-10-12T03:14:23.054Z,98944.28
2022-10-12T03:16:52.702Z,98950.59
2022-10-12T03:19:25.040Z,98949.97
2022-10-12T03:21:54.863Z,98948.50
2022-10-12T03:24:24.484Z,98950.47
2022-10-12T03:26:54.123Z,98962.16
2022-10-12T03:29:23.808Z,98963.72
2022-10-12T03:31:53.446Z,98958.47
2022-10-12T03:34:25.702Z,98960.16
2022-10-12T03:36:55.307Z,98959.38
2022-10-12T03:39:25.069Z,98963.34
2022-10-12T03:41:54.771Z,98965.94
2022-10-12T03:44:24.606Z,98968.25
2022-10-12T03:46:54.285Z,98965.22
2022-10-12T03:49:26.629Z,98964.13
2022-10-12T03:51:56.321Z,98971.56
2022-10-12T03:54:25.962Z,98969.47
2022-10-12T03:56:55.639Z,98971.19
2022-10-12T03:59:25.474Z,98970.81
2022-10-12T04:01:55.171Z,98968.25
2022-10-12T04:04:27.495Z,98962.94
2022-10-12T04:06:57.203Z,98960.22
2022-10-12T04:09:27.018Z,98965.78
2022-10-12T04:11:56.665Z,98961.97
2022-10-12T04:14:26.438Z,98960.16
2022-10-12T04:16:56.437Z,98971.00
2022-10-12T04:19:28.757Z,98966.13
2022-10-12T04:21:58.485Z,98965.78
2022-10-12T04:24:28.119Z,98962.59
2022-10-12T04:26:57.849Z,98959.63
2022-10-12T04:29:27.528Z,98965.19
2022-10-12T04:31:57.288Z,98963.25
2022-10-12T04:34:29.560Z,98966.91
2022-10-12T04:36:59.256Z,98965.34
2022-10-12T04:39:28.886Z,98972.69
2022-10-12T04:41:58.612Z,98973.59
2022-10-12T04:44:32.205Z,98970.81
2022-10-12T04:47:02.188Z,98977.34
2022-10-12T04:49:34.423Z,98974.91
2022-10-12T04:52:04.262Z,98972.03
2022-10-12T04:54:34.176Z,98972.81
2022-10-12T04:57:03.900Z,98977.41
2022-10-12T04:59:33.554Z,98979.94
2022-10-12T05:02:03.230Z,98978.91
2022-10-12T05:07:25.132Z,98981.47
2022-10-12T05:09:54.824Z,98987.69
2022-10-12T05:12:24.493Z,98987.28
2022-10-12T05:14:54.164Z,98986.47
2022-10-12T05:17:24.351Z,98984.44
2022-10-12T05:19:56.629Z,98984.31
2022-10-12T05:22:26.340Z,98980.44
2022-10-12T05:24:56.108Z,98977.69
2022-10-12T05:27:25.776Z,98974.03
2022-10-12T05:29:55.505Z,98970.75
2022-10-12T05:32:25.198Z,98979.81
2022-10-12T05:34:58.051Z,98979.72
2022-10-12T05:37:27.926Z,98979.38
2022-10-12T05:39:57.624Z,98984.00
2022-10-12T05:42:27.381Z,98980.59
2022-10-12T05:44:57.128Z,98977.78
2022-10-12T05:47:26.836Z,98973.69
2022-10-12T05:49:59.272Z,98983.56
2022-10-12T05:52:29.071Z,98980.81
2022-10-12T05:54:58.753Z,98989.84
2022-10-12T05:57:28.599Z,98991.31
2022-10-12T05:59:58.306Z,98992.16
2022-10-12T06:02:28.041Z,98997.31
2022-10-12T06:05:00.375Z,98998.09
2022-10-12T06:07:30.525Z,98994.88
2022-10-12T06:10:00.255Z,99004.03
2022-10-12T06:12:30.098Z,98999.28
2022-10-12T06:14:59.908Z,98996.31
2022-10-12T06:17:29.712Z,99000.28
2022-10-12T06:20:01.998Z,99000.38
2022-10-12T06:22:31.708Z,98995.50
2022-10-12T06:25:01.587Z,98991.28
2022-10-12T06:27:31.382Z,98997.22
2022-10-12T06:30:01.153Z,98997.19
2022-10-12T06:32:30.878Z,98994.19
2022-10-12T06:35:03.720Z,99000.72
2022-10-12T06:37:49.109Z,99009.91
2022-10-12T06:40:19.922Z,99001.31
2022-10-12T06:42:49.674Z,99007.34
2022-10-12T06:45:20.279Z,99002.88
2022-10-12T06:47:50.035Z,99008.41
2022-10-12T06:50:22.323Z,99006.38
2022-10-12T06:52:51.893Z,99005.34
2022-10-12T06:55:21.839Z,99006.28
2022-10-12T06:57:51.535Z,99007.06
2022-10-12T07:00:21.483Z,99009.94
2022-10-12T07:02:52.931Z,99011.72
2022-10-12T07:05:27.309Z,99012.47
2022-10-12T07:07:57.244Z,99013.47
2022-10-12T07:10:28.376Z,99012.06
2022-10-12T07:12:58.071Z,99011.91
2022-10-12T07:15:27.822Z,99014.31
2022-10-12T07:17:57.595Z,99015.25
2022-10-12T07:20:29.962Z,99013.69
2022-10-12T07:22:59.680Z,99009.56
2022-10-12T07:25:29.406Z,99013.13
2022-10-12T07:27:59.246Z,99014.66
2022-10-12T07:30:29.009Z,99015.41
2022-10-12T07:32:58.671Z,99014.16
2022-10-12T07:35:31.022Z,99015.84
2022-10-12T07:38:00.694Z,99013.69
2022-10-12T07:40:30.441Z,99005.56
2022-10-12T07:43:15.195Z,99008.50
2022-10-12T07:45:46.183Z,98999.03
2022-10-12T07:48:15.969Z,99008.09
2022-10-12T07:50:48.328Z,99010.16
2022-10-12T07:53:18.262Z,99010.69
2022-10-12T07:55:47.943Z,99000.97
2022-10-12T07:58:17.781Z,99004.66
2022-10-12T08:00:47.547Z,99014.69
2022-10-12T08:03:17.235Z,99016.69
2022-10-12T08:05:49.430Z,99009.78
2022-10-12T08:08:19.177Z,99013.72
2022-10-12T08:10:48.942Z,99014.19
2022-10-12T08:13:18.724Z,99003.09
2022-10-12T08:15:52.290Z,99006.69
2022-10-12T08:18:22.015Z,99011.09
2022-10-12T08:20:54.379Z,99014.28
2022-10-12T08:23:26.251Z,99013.06
2022-10-12T08:25:56.809Z,99025.94
2022-10-12T08:28:27.732Z,99028.63
2022-10-12T08:30:57.683Z,99026.72
2022-10-12T08:33:27.430Z,99025.19
2022-10-12T08:36:01.888Z,99021.75
2022-10-12T08:38:31.821Z,99019.56
2022-10-12T08:41:10.081Z,99014.13
2022-10-12T08:43:51.003Z,99021.69
2022-10-12T08:46:23.320Z,99013.88
2022-10-12T08:48:58.221Z,99018.97
2022-10-12T08:51:33.937Z,99013.88
2022-10-12T08:54:08.403Z,99011.94
2022-10-12T08:56:40.381Z,99014.72
2022-10-12T08:59:14.972Z,99008.53
2022-10-12T09:02:00.573Z,99006.94
2022-10-12T09:04:43.368Z,99005.72
2022-10-12T09:07:19.855Z,98999.03
2022-10-12T09:10:04.701Z,98997.19
2022-10-12T09:12:47.899Z,98998.00
2022-10-12T09:15:21.350Z,98990.16
2022-10-12T09:17:55.022Z,98998.81
2022-10-12T09:20:26.191Z,98998.81
2022-10-12T09:23:01.613Z,98999.59
2022-10-12T09:25:31.588Z,99007.47
2022-10-12T09:28:16.200Z,98999.59
2022-10-12T09:30:55.356Z,99001.16
2022-10-12T09:33:30.768Z,99006.28
2022-10-12T09:36:02.087Z,99007.41
2022-10-12T09:38:34.591Z,99014.13
2022-10-12T09:41:04.244Z,99010.59
2022-10-12T09:43:34.333Z,99013.34
2022-10-12T09:46:09.050Z,99015.28
2022-10-12T09:48:38.919Z,99016.84
2022-10-12T09:51:14.073Z,99021.94
2022-10-12T09:53:56.713Z,99017.25
2022-10-12T09:56:31.892Z,99018.41
2022-10-12T09:59:05.001Z,99016.00
2022-10-12T10:01:36.339Z,99016.81
2022-10-12T10:04:19.007Z,99013.59
2022-10-12T10:06:49.558Z,99014.44
2022-10-12T10:09:34.240Z,99014.38
2022-10-12T10:12:17.555Z,99013.59
2022-10-12T10:14:47.733Z,99008.84
2022-10-12T10:17:20.169Z,99019.88
2022-10-12T10:19:54.601Z,99015.59
2022-10-12T10:22:25.823Z,99022.28
2022-10-12T10:25:00.973Z,99017.16
2022-10-12T10:27:37.659Z,99019.13
2022-10-12T10:30:34.997Z,99012.06
2022-10-12T10:33:17.822Z,99017.13
2022-10-12T10:36:00.470Z,99018.75
2022-10-12T10:38:31.447Z,99014.81
2022-10-12T10:41:08.796Z,99009.66
2022-10-12T10:43:39.137Z,99007.72
2022-10-12T10:46:09.185Z,99013.66
2022-10-12T10:48:56.452Z,99016.34
2022-10-12T10:51:41.596Z,99008.91
2022-10-12T10:54:19.743Z,99017.19
2022-10-12T10:56:54.636Z,99011.69
2022-10-12T10:59:30.551Z,99011.25
2022-10-12T11:02:06.900Z,99017.59
2022-10-12T11:04:44.895Z,99010.53
2022-10-12T11:07:25.105Z,99007.75
2022-10-12T11:09:58.898Z,99004.22
2022-10-12T11:12:34.416Z,99007.41
2022-10-12T11:15:10.919Z,99006.63
2022-10-12T11:17:47.034Z,99002.72
2022-10-12T11:20:33.599Z,98996.41
2022-10-12T11:23:07.894Z,99005.88
2022-10-12T11:25:46.915Z,99000.72
2022-10-12T11:28:21.646Z,98997.22
2022-10-12T11:30:53.666Z,98996.41
2022-10-12T11:33:27.856Z,98986.97
2022-10-12T11:35:59.127Z,98992.13
2022-10-12T11:38:34.065Z,98996.81
2022-10-12T11:41:33.937Z,98991.28
2022-10-12T11:44:07.033Z,98995.22
2022-10-12T11:46:39.906Z,98985.41
2022-10-12T11:49:17.704Z,98991.72
2022-10-12T11:51:49.869Z,98981.47
2022-10-12T11:54:31.188Z,98978.31
2022-10-12T11:57:06.339Z,98972.41
2022-10-12T11:59:44.355Z,98977.53
2022-10-12T12:02:21.129Z,98975.16
2022-10-12T12:04:52.183Z,98968.47
2022-10-12T12:07:45.477Z,98966.53
2022-10-12T12:10:55.255Z,98966.91
2022-10-12T12:13:28.609Z,98964.94
2022-10-12T12:16:36.511Z,98972.81
2022-10-12T12:19:39.982Z,98964.16
2022-10-12T12:22:23.674Z,98964.97
2022-10-12T12:25:07.136Z,98957.88
2022-10-12T12:27:43.050Z,98957.50
2022-10-12T12:30:33.104Z,98953.16
2022-10-12T12:33:05.148Z,98952.78
2022-10-12T12:35:41.427Z,98955.13
2022-10-12T12:38:21.683Z,98943.69
2022-10-12T12:41:03.789Z,98940.13
2022-10-12T12:44:03.050Z,98938.94
2022-10-12T12:47:39.936Z,98934.97
2022-10-12T12:50:00.653Z,98934.19
2022-10-12T12:52:36.027Z,98932.97
2022-10-12T12:55:43.881Z,98932.16
2022-10-12T12:58:30.638Z,98938.41
2022-10-12T13:01:18.660Z,98938.38
2022-10-12T13:04:12.600Z,98931.72
2022-10-12T13:07:05.451Z,98930.91
2022-10-12T13:09:53.808Z,98934.13
2022-10-12T13:12:35.864Z,98926.97
2022-10-12T13:15:20.565Z,98916.28
2022-10-12T13:18:18.668Z,98923.41
2022-10-12T13:21:01.092Z,98918.31
2022-10-12T13:23:31.392Z,98926.19
2022-10-12T13:26:08.204Z,98914.00
2022-10-12T13:28:44.097Z,98929.38
2022-10-12T13:31:21.572Z,98916.34
2022-10-12T13:34:01.932Z,98911.25
2022-10-12T13:36:34.481Z,98906.50
2022-10-12T13:39:11.782Z,98912.78
2022-10-12T13:41:44.812Z,98904.13
2022-10-12T13:44:25.437Z,98898.25
2022-10-12T13:46:56.996Z,98895.44
2022-10-12T13:49:28.917Z,98897.53
2022-10-12T13:52:00.547Z,98893.53
2022-10-12T13:54:38.160Z,98895.47
2022-10-12T13:57:21.306Z,98894.66
2022-10-12T13:59:56.454Z,98893.59
2022-10-12T14:02:28.306Z,98897.50
2022-10-12T14:04:59.537Z,98892.78
2022-10-12T14:07:34.772Z,98888.06
2022-10-12T14:10:09.047Z,98897.53
2022-10-12T14:12:43.185Z,98886.06
2022-10-12T14:15:15.807Z,98888.41
2022-10-12T14:17:47.275Z,98888.00
2022-10-12T14:20:20.073Z,98887.94
2022-10-12T14:22:51.728Z,98887.91
2022-10-12T14:25:24.374Z,98894.97
2022-10-12T14:28:01.666Z,98891.41
2022-10-12T14:30:33.153Z,98885.88
2022-10-12T14:33:14.765Z,98869.75
2022-10-12T14:35:48.165Z,98883.59
2022-10-12T14:38:42.733Z,98880.38
2022-10-12T14:41:33.461Z,98885.16
2022-10-12T14:44:15.987Z,98882.09
2022-10-12T14:46:54.366Z,98883.66
2022-10-12T14:49:26.454Z,98882.53
2022-10-12T14:51:57.761Z,98878.59
2022-10-12T14:54:27.496Z,98875.06
2022-10-12T14:56:57.221Z,98875.47
2022-10-12T14:59:29.539Z,98872.34
2022-10-12T15:01:59.268Z,98871.13
2022-10-12T15:04:28.911Z,98873.91
2022-10-12T15:06:59.272Z,98875.50
2022-10-12T15:09:29.100Z,98869.56
2022-10-12T15:11:59.010Z,98869.53
2022-10-12T15:14:31.352Z,98875.84
2022-10-12T15:17:01.101Z,98874.63
2022-10-12T15:19:30.811Z,98864.78
2022-10-12T15:22:00.652Z,98871.53
2022-10-12T15:24:30.483Z,98867.97
2022-10-12T15:27:00.423Z,98862.47
2022-10-12T15:29:32.832Z,98862.50
2022-10-12T15:32:02.511Z,98861.34
2022-10-12T15:34:32.190Z,98855.81
2022-10-12T15:37:06.498Z,98853.06
2022-10-12T15:39:38.469Z,98857.81
2022-10-12T15:42:08.305Z,98864.88
2022-10-12T15:44:44.590Z,98856.22
2022-10-12T15:47:14.603Z,98849.91
2022-10-12T15:49:44.581Z,98857.81
2022-10-12T15:52:14.343Z,98859.75
2022-10-12T15:54:48.118Z,98861.34
2022-10-12T15:57:18.739Z,98858.59
2022-10-12T15:59:52.550Z,98857.00
2022-10-12T16:02:24.711Z,98849.91
2022-10-12T16:04:54.331Z,98855.41
2022-10-12T16:07:24.161Z,98857.00
2022-10-12T16:09:53.854Z,98856.59
2022-10-12T16:12:23.696Z,98845.94
2022-10-12T16:14:55.943Z,98843.97
2022-10-12T16:17:25.624Z,98852.19
2022-10-12T16:19:55.249Z,98844.72
2022-10-12T16:22:24.962Z,98841.97
2022-10-12T16:24:54.735Z,98849.06
2022-10-12T16:27:24.422Z,98846.72
2022-10-12T16:29:56.703Z,98840.38
2022-10-12T16:32:26.430Z,98850.53
2022-10-12T16:34:56.109Z,98857.97
2022-10-12T16:37:25.890Z,98865.78
2022-10-12T16:39:56.095Z,98868.16
2022-10-12T16:42:26.249Z,98872.09
2022-10-12T16:44:58.549Z,98874.34
2022-10-12T16:47:28.275Z,98881.31
2022-10-12T16:49:59.780Z,98876.94
2022-10-12T16:52:29.410Z,98885.53
2022-10-12T16:54:59.069Z,98868.69
2022-10-12T16:57:28.966Z,98873.13
2022-10-12T17:00:01.564Z,98875.81
2022-10-12T17:02:31.575Z,98877.06
2022-10-12T17:05:01.466Z,98882.22
2022-10-12T17:07:31.458Z,98880.31
2022-10-12T17:10:01.157Z,98882.69
2022-10-12T17:12:30.900Z,98879.53
2022-10-12T17:15:03.243Z,98876.34
2022-10-12T17:17:32.964Z,98883.44
2022-10-12T17:22:52.216Z,98879.06
2022-10-12T17:25:21.848Z,98886.09
2022-10-12T17:27:51.580Z,98876.25
2022-10-12T17:30:23.957Z,98868.03
2022-10-12T17:32:53.691Z,98866.88
2022-10-12T17:35:23.479Z,98864.53
2022-10-12T17:37:53.176Z,98863.03
2022-10-12T17:40:23.051Z,98856.31
2022-10-12T17:42:52.689Z,98859.47
2022-10-12T17:45:25.057Z,98863.81
2022-10-12T17:47:54.757Z,98864.59
2022-10-12T17:50:24.509Z,98872.47
2022-10-12T17:52:54.986Z,98871.22
2022-10-12T17:55:43.873Z,98881.88
2022-10-12T17:58:14.956Z,98883.78
2022-10-12T18:00:50.189Z,98876.66
2022-10-12T18:03:24.853Z,98887.25
2022-10-12T18:05:55.679Z,98877.38
2022-10-12T18:08:25.401Z,98869.09
2022-10-12T18:10:55.140Z,98875.41
2022-10-12T18:13:24.922Z,98882.44
2022-10-12T18:15:57.710Z,98885.53
2022-10-12T18:18:28.388Z,98881.66
2022-10-12T18:20:58.099Z,98883.56
2022-10-12T18:23:27.812Z,98884.69
2022-10-12T18:25:57.564Z,98884.63
2022-10-12T18:28:27.301Z,98875.25
2022-10-12T18:30:59.651Z,98882.72
2022-10-12T18:33:30.060Z,98886.16
2022-10-12T18:36:05.525Z,98891.66
2022-10-12T18:38:35.557Z,98882.47
2022-10-12T18:41:05.815Z,98885.41
2022-10-12T18:43:36.249Z,98887.78
2022-10-12T18:46:10.945Z,98889.34
2022-10-12T18:48:41.449Z,98897.22
2022-10-12T18:51:26.980Z,98890.81
2022-10-12T18:53:57.356Z,98889.28
2022-10-12T18:56:28.096Z,98887.28
2022-10-12T18:58:59.836Z,98887.38
2022-10-12T19:01:33.664Z,98884.91
2022-10-12T19:04:05.792Z,98878.50
2022-10-12T19:06:38.004Z,98883.97
2022-10-12T19:09:08.635Z,98887.41
2022-10-12T19:11:38.322Z,98886.22
2022-10-12T19:14:10.737Z,98884.66
2022-10-12T19:16:43.725Z,98895.63
2022-10-12T19:19:20.886Z,98894.47
2022-10-12T19:21:51.076Z,98892.91
2022-10-12T19:24:21.244Z,98890.91
2022-10-12T19:26:51.609Z,98908.59
2022-10-12T19:29:21.379Z,98899.16
2022-10-12T19:31:54.173Z,98895.13
2022-10-12T19:34:24.451Z,98896.25
2022-10-12T19:36:54.677Z,98897.00
2022-10-12T19:39:25.949Z,98892.78
2022-10-12T19:41:55.903Z,98898.16
2022-10-12T19:44:25.541Z,98894.25
2022-10-12T19:46:59.952Z,98894.38
2022-10-12T19:49:32.068Z,98895.03
2022-10-12T19:52:05.515Z,98894.91
2022-10-12T19:54:36.356Z,98892.94
2022-10-12T19:57:06.228Z,98892.69
2022-10-12T19:59:36.075Z,98902.81
2022-10-12T20:02:09.329Z,98900.47
2022-10-12T20:04:39.105Z,98903.97
2022-10-12T20:07:08.785Z,98902.69
2022-10-12T20:09:38.432Z,98902.59
2022-10-12T20:12:10.760Z,98901.16
2022-10-12T20:14:44.937Z,98903.38
2022-10-12T20:17:17.356Z,98895.44
2022-10-12T20:19:50.001Z,98893.22
2022-10-12T20:22:20.363Z,98900.28
2022-10-12T20:24:50.374Z,98899.47
2022-10-12T20:27:20.183Z,98904.66
2022-10-12T20:29:49.982Z,98906.53
2022-10-12T20:32:22.708Z,98914.53
2022-10-12T20:34:53.209Z,98916.75
2022-10-12T20:37:23.631Z,98915.97
2022-10-12T20:39:57.393Z,98910.50
2022-10-12T20:42:28.020Z,98915.16
2022-10-12T20:44:58.144Z,98915.63
2022-10-12T20:47:31.779Z,98915.66
2022-10-12T20:50:01.528Z,98908.25
2022-10-12T20:52:31.208Z,98916.06
2022-10-12T20:55:00.941Z,98917.97
2022-10-12T20:57:30.785Z,98910.47
2022-10-12T21:00:00.461Z,98906.09
2022-10-12T21:02:33.521Z,98900.94
2022-10-12T21:05:03.366Z,98903.88
2022-10-12T21:07:33.060Z,98901.97
2022-10-12T21:10:02.785Z,98893.41
2022-10-12T21:12:32.537Z,98904.38
2022-10-12T21:15:02.402Z,98904.72
2022-10-12T21:17:34.733Z,98900.44
2022-10-12T21:20:05.173Z,98894.53
2022-10-12T21:22:34.908Z,98891.94
2022-10-12T21:25:04.642Z,98895.50
2022-10-12T21:27:34.511Z,98889.41
2022-10-12T21:30:04.264Z,98892.97
2022-10-12T21:32:36.731Z,98894.44
2022-10-12T21:35:06.817Z,98886.31
2022-10-12T21:37:36.513Z,98888.91
2022-10-12T21:40:06.934Z,98892.38
2022-10-12T21:42:36.699Z,98881.97
2022-10-12T21:45:06.737Z,98884.03
2022-10-12T21:47:39.044Z,98888.66
2022-10-12T21:50:10.092Z,98878.34
2022-10-12T21:52:39.932Z,98875.38
2022-10-12T21:55:10.364Z,98878.69
2022-10-12T21:57:40.235Z,98871.88
2022-10-12T22:00:11.390Z,98885.75
2022-10-12T22:02:43.690Z,98877.69
2022-10-12T22:05:13.458Z,98884.03
2022-10-12T22:07:45.304Z,98882.03
2022-10-12T22:10:15.471Z,98879.50
2022-10-12T22:12:45.277Z,98877.56
2022-10-12T22:15:15.089Z,98868.13
2022-10-12T22:17:47.408Z,98873.50
2022-10-12T22:20:17.135Z,98872.75
2022-10-12T22:22:46.907Z,98868.75
2022-10-12T22:25:16.706Z,98872.22
2022-10-12T22:27:46.395Z,98870.59
2022-10-12T22:30:16.261Z,98869.59
2022-10-12T22:32:48.530Z,98876.00
2022-10-12T22:35:18.406Z,98871.72
2022-10-12T22:37:48.211Z,98871.06
2022-10-12T22:40:18.021Z,98868.47
2022-10-12T22:42:47.754Z,98869.84
2022-10-12T22:45:17.664Z,98867.78
2022-10-12T22:47:50.002Z,98871.25
2022-10-12T22:50:19.939Z,98875.59
2022-10-12T22:52:49.686Z,98867.31
2022-10-12T22:55:19.412Z,98873.44
2022-10-12T22:57:49.098Z,98862.63
2022-10-12T23:00:19.586Z,98873.38
2022-10-12T23:02:51.891Z,98871.50
2022-10-12T23:05:21.577Z,98873.50
2022-10-12T23:07:51.325Z,98864.72
2022-10-12T23:10:21.212Z,98865.94
2022-10-12T23:12:51.157Z,98870.19
2022-10-12T23:15:21.096Z,98861.47
2022-10-12T23:17:53.426Z,98860.69
2022-10-12T23:20:23.109Z,98859.72
2022-10-12T23:22:52.784Z,98856.75
2022-10-12T23:25:22.441Z,98848.13
2022-10-12T23:27:52.097Z,98843.34
2022-10-12T23:30:21.809Z,98843.44
2022-10-12T23:32:54.274Z,98844.00
2022-10-12T23:35:24.047Z,98846.59
2022-10-12T23:37:53.693Z,98846.53
2022-10-12T23:40:23.405Z,98846.84
2022-10-12T23:42:53.043Z,98850.38
2022-10-12T23:45:22.701Z,98861.69
2022-10-12T23:47:55.004Z,98867.28
2022-10-12T23:50:24.751Z,98857.50
2022-10-12T23:52:54.391Z,98867.78
2022-10-12T23:55:23.986Z,98863.28
2022-10-12T23:57:53.673Z,98867.84
